createdAt,value
2019-02-02T00:02:07.964Z,90970.59
2019-02-02T00:04:36.560Z,90971.41
2019-02-02T00:07:05.319Z,90966.45
2019-02-02T00:09:33.895Z,90967.84
2019-02-02T00:12:42.694Z,90965.23
2019-02-02T00:18:31.938Z,90946.22
2019-02-02T00:21:40.592Z,90963.88
2019-02-02T00:24:27.447Z,90961.09
2019-02-02T00:27:41.380Z,90958.20
2019-02-02T00:30:32.800Z,90962.54
2019-02-02T00:33:12.980Z,90971.90
2019-02-02T00:35:41.579Z,90972.95
2019-02-02T00:38:10.435Z,90974.34
2019-02-02T00:40:58.777Z,90979.93
2019-02-02T00:49:48.863Z,90953.11
2019-02-02T00:52:17.113Z,90950.13
2019-02-02T00:54:46.443Z,90952.58
2019-02-02T00:57:33.612Z,90969.25
2019-02-02T01:00:02.361Z,90973.03
2019-02-02T01:02:30.269Z,90983.41
2019-02-02T01:05:38.824Z,90976.91
2019-02-02T01:11:27.138Z,90966.94
2019-02-02T01:13:55.750Z,90971.55
2019-02-02T01:16:24.254Z,90977.91
2019-02-02T01:18:52.759Z,90965.41
2019-02-02T01:24:33.363Z,90970.11
2019-02-02T01:27:01.175Z,90979.22
2019-02-02T01:29:29.761Z,90986.50
2019-02-02T01:31:58.353Z,90993.23
2019-02-02T01:34:26.869Z,90996.87
2019-02-02T01:40:14.864Z,90993.22
2019-02-02T01:46:03.453Z,91001.92
2019-02-02T01:51:50.659Z,91013.45
2019-02-02T01:54:19.167Z,91004.97
2019-02-02T02:00:16.872Z,91004.17
2019-02-02T02:02:44.320Z,91017.51
2019-02-02T02:08:14.124Z,91018.82
2019-02-02T02:10:42.365Z,91017.45
2019-02-02T02:16:30.805Z,91005.60
2019-02-02T02:18:59.418Z,91010.05
2019-02-02T02:21:39.298Z,91000.00
2019-02-02T02:24:07.549Z,90989.28
2019-02-02T02:26:35.388Z,90985.87
2019-02-02T02:38:06.203Z,90984.72
2019-02-02T02:40:33.794Z,90991.63
2019-02-02T02:43:02.366Z,90993.25
2019-02-02T02:45:30.686Z,90993.13
2019-02-02T02:51:19.636Z,91010.59
2019-02-02T02:54:06.993Z,91016.80
2019-02-02T02:59:47.562Z,91017.23
2019-02-02T03:02:15.766Z,91016.63
2019-02-02T03:04:42.926Z,91019.66
2019-02-02T03:10:31.619Z,91018.47
2019-02-02T03:13:39.847Z,91012.98
2019-02-02T03:16:08.493Z,91009.28
2019-02-02T03:18:56.234Z,91012.88
2019-02-02T03:21:24.405Z,91003.89
2019-02-02T03:23:52.505Z,91003.26
2019-02-02T03:29:40.710Z,91016.69
2019-02-02T03:32:09.331Z,91025.72
2019-02-02T03:34:37.949Z,91035.94
2019-02-02T03:40:34.016Z,91034.03
2019-02-02T03:46:09.974Z,91033.42
2019-02-02T03:48:38.538Z,91052.37
2019-02-02T03:51:26.100Z,91050.42
2019-02-02T03:53:54.629Z,91058.14
2019-02-02T03:59:22.277Z,91063.43
2019-02-02T04:01:50.573Z,91058.52
2019-02-02T04:10:40.936Z,91071.16
2019-02-02T04:13:09.615Z,91099.10
2019-02-02T04:15:37.868Z,91093.81
2019-02-02T04:18:05.820Z,91091.86
2019-02-02T04:20:34.404Z,91081.05
2019-02-02T04:23:02.650Z,91073.56
2019-02-02T04:25:30.832Z,91049.73
2019-02-02T04:27:59.080Z,91055.67
2019-02-02T04:33:47.920Z,91092.97
2019-02-02T04:36:56.493Z,91108.30
2019-02-02T04:39:43.973Z,91090.27
2019-02-02T04:42:52.575Z,91072.30
2019-02-02T04:48:41.751Z,91040.55
2019-02-02T04:51:50.314Z,91025.55
2019-02-02T04:54:18.885Z,91034.05
2019-02-02T05:03:38.320Z,91083.33
2019-02-02T05:09:39.350Z,91123.06
2019-02-02T05:17:27.211Z,91115.69
2019-02-02T05:19:55.350Z,91119.48
2019-02-02T05:25:56.300Z,91117.52
2019-02-02T05:28:24.508Z,91108.94
2019-02-02T05:30:53.020Z,91105.57
2019-02-02T05:33:21.677Z,91103.74
2019-02-02T05:36:30.274Z,91095.94
2019-02-02T05:38:58.145Z,91093.16
2019-02-02T05:51:08.701Z,91126.84
2019-02-02T05:53:37.255Z,91141.52
2019-02-02T05:56:05.578Z,91136.23
2019-02-02T05:58:33.750Z,91128.67
2019-02-02T06:10:23.828Z,91149.39
2019-02-02T06:12:52.155Z,91158.78
2019-02-02T06:15:19.943Z,91162.61
2019-02-02T06:17:47.870Z,91160.09
2019-02-02T06:20:16.169Z,91168.53
2019-02-02T06:22:44.285Z,91179.55
2019-02-02T06:25:12.281Z,91186.48
2019-02-02T06:27:40.936Z,91185.28
2019-02-02T06:30:12.743Z,91189.80
2019-02-02T06:32:41.133Z,91194.39
2019-02-02T06:35:10.481Z,91209.12
2019-02-02T06:37:38.757Z,91207.21
2019-02-02T06:40:08.100Z,91207.40
2019-02-02T06:45:37.760Z,91204.74
2019-02-02T06:48:46.342Z,91212.42
2019-02-02T06:51:14.891Z,91217.02
2019-02-02T06:53:42.727Z,91226.09
2019-02-02T06:56:10.923Z,91222.80
2019-02-02T06:58:39.151Z,91230.36
2019-02-02T07:01:26.346Z,91230.89
2019-02-02T07:03:54.675Z,91234.70
2019-02-02T07:06:22.850Z,91241.30
2019-02-02T07:08:51.110Z,91242.97
2019-02-02T07:11:19.332Z,91246.38
2019-02-02T07:14:27.657Z,91254.02
2019-02-02T07:19:56.871Z,91259.10
2019-02-02T07:22:25.486Z,91252.80
2019-02-02T07:25:05.522Z,91253.69
2019-02-02T07:30:54.256Z,91259.10
2019-02-02T07:33:23.556Z,91256.17
2019-02-02T07:35:54.018Z,91259.09
2019-02-02T07:38:28.254Z,91266.21
2019-02-02T07:40:56.875Z,91270.77
2019-02-02T07:44:05.489Z,91278.27
2019-02-02T07:46:33.384Z,91288.23
2019-02-02T07:49:01.933Z,91291.94
2019-02-02T07:51:30.444Z,91291.83
2019-02-02T07:53:58.691Z,91296.83
2019-02-02T07:56:27.268Z,91306.61
2019-02-02T07:58:55.936Z,91311.54
2019-02-02T08:01:23.775Z,91309.12
2019-02-02T08:03:51.637Z,91323.45
2019-02-02T08:06:19.803Z,91319.59
2019-02-02T08:08:48.436Z,91331.09
2019-02-02T08:11:16.341Z,91332.08
2019-02-02T08:13:44.542Z,91326.84
2019-02-02T08:16:12.727Z,91336.95
2019-02-02T08:18:41.316Z,91329.72
2019-02-02T08:21:08.826Z,91332.57
2019-02-02T08:23:37.070Z,91343.38
2019-02-02T08:26:05.722Z,91339.22
2019-02-02T08:28:34.263Z,91342.81
2019-02-02T08:31:02.959Z,91347.70
2019-02-02T08:33:31.320Z,91351.98
2019-02-02T08:35:59.602Z,91364.40
2019-02-02T08:38:27.514Z,91361.58
2019-02-02T08:40:55.025Z,91366.63
2019-02-02T08:43:23.227Z,91375.47
2019-02-02T08:45:51.762Z,91381.95
2019-02-02T08:48:20.017Z,91384.11
2019-02-02T08:50:47.971Z,91379.59
2019-02-02T08:53:15.860Z,91387.80
2019-02-02T08:55:44.038Z,91392.36
2019-02-02T08:58:12.545Z,91389.14
2019-02-02T09:00:40.392Z,91391.72
2019-02-02T09:03:08.397Z,91392.33
2019-02-02T09:05:36.292Z,91399.66
2019-02-02T09:08:04.613Z,91397.47
2019-02-02T09:10:32.829Z,91392.77
2019-02-02T09:13:01.510Z,91398.47
2019-02-02T09:15:30.087Z,91395.45
2019-02-02T09:17:57.936Z,91395.81
2019-02-02T09:20:26.652Z,91402.91
2019-02-02T09:23:03.845Z,91404.21
2019-02-02T09:28:39.300Z,91409.11
2019-02-02T09:31:15.437Z,91408.66
2019-02-02T09:36:45.790Z,91414.91
2019-02-02T09:39:14.142Z,91420.73
2019-02-02T09:41:42.450Z,91417.85
2019-02-02T09:44:11.116Z,91429.87
2019-02-02T09:49:59.882Z,91432.16
2019-02-02T09:52:28.156Z,91441.16
2019-02-02T10:01:27.431Z,91450.95
2019-02-02T10:03:54.815Z,91459.32
2019-02-02T10:09:46.044Z,91473.16
2019-02-02T10:12:14.726Z,91470.09
2019-02-02T10:14:43.261Z,91476.78
2019-02-02T10:17:12.032Z,91476.57
2019-02-02T10:19:40.371Z,91481.33
2019-02-02T10:22:08.997Z,91482.05
2019-02-02T10:27:38.284Z,91494.78
2019-02-02T10:30:26.647Z,91493.36
2019-02-02T10:38:47.723Z,91499.96
2019-02-02T10:41:16.382Z,91500.41
2019-02-02T10:43:44.632Z,91504.05
2019-02-02T10:46:24.310Z,91505.33
2019-02-02T10:51:53.637Z,91507.20
2019-02-02T10:54:22.298Z,91506.12
2019-02-02T10:56:51.060Z,91507.61
2019-02-02T10:59:19.657Z,91505.84
2019-02-02T11:01:51.120Z,91508.76
2019-02-02T11:04:58.442Z,91515.70
2019-02-02T11:07:27.059Z,91511.65
2019-02-02T11:10:07.767Z,91517.14
2019-02-02T11:12:36.234Z,91516.52
2019-02-02T11:21:07.101Z,91515.94
2019-02-02T11:23:35.612Z,91517.73
2019-02-02T11:26:03.848Z,91510.80
2019-02-02T11:28:31.758Z,91507.30
2019-02-02T11:31:00.500Z,91505.56
2019-02-02T11:33:29.046Z,91498.95
2019-02-02T11:35:57.515Z,91495.77
2019-02-02T11:38:25.965Z,91502.44
2019-02-02T11:40:54.440Z,91497.69
2019-02-02T11:43:22.882Z,91496.50
2019-02-02T11:45:50.858Z,91492.14
2019-02-02T11:48:19.062Z,91495.33
2019-02-02T11:50:46.865Z,91495.46
2019-02-02T11:53:15.067Z,91494.73
2019-02-02T11:55:43.575Z,91496.33
2019-02-02T11:58:11.701Z,91495.68
2019-02-02T12:00:41.456Z,91480.30
2019-02-02T12:03:09.450Z,91483.03
2019-02-02T12:05:37.327Z,91476.64
2019-02-02T12:08:05.962Z,91477.78
2019-02-02T12:10:34.205Z,91486.17
2019-02-02T12:13:02.402Z,91480.93
2019-02-02T12:15:30.794Z,91486.15
2019-02-02T12:21:01.859Z,91490.65
2019-02-02T12:23:30.258Z,91494.83
2019-02-02T12:25:58.667Z,91491.88
2019-02-02T12:28:26.526Z,91494.84
2019-02-02T12:30:54.938Z,91487.42
2019-02-02T12:33:25.902Z,91486.91
2019-02-02T12:35:53.313Z,91487.66
2019-02-02T12:38:21.169Z,91486.31
2019-02-02T12:43:58.510Z,91503.93
2019-02-02T12:46:26.994Z,91512.83
2019-02-02T12:48:55.428Z,91513.83
2019-02-02T12:51:24.042Z,91519.88
2019-02-02T12:53:52.211Z,91519.77
2019-02-02T12:57:00.413Z,91514.92
2019-02-02T12:59:28.381Z,91513.79
2019-02-02T13:01:56.869Z,91517.36
2019-02-02T13:04:24.978Z,91524.42
2019-02-02T13:06:53.402Z,91527.30
2019-02-02T13:09:33.556Z,91534.80
2019-02-02T13:21:25.563Z,91541.23
2019-02-02T13:27:43.041Z,91538.14
2019-02-02T13:33:13.876Z,91546.23
2019-02-02T13:36:22.867Z,91557.08
2019-02-02T13:48:06.766Z,91574.53
2019-02-02T13:50:46.978Z,91571.64
2019-02-02T13:53:15.268Z,91580.80
2019-02-02T13:55:43.997Z,91589.66
2019-02-02T13:58:43.574Z,91588.57
2019-02-02T14:16:19.701Z,91607.23
2019-02-02T14:18:47.606Z,91609.03
2019-02-02T14:21:15.904Z,91616.42
2019-02-02T14:23:43.943Z,91618.13
2019-02-02T14:26:12.503Z,91625.21
2019-02-02T14:28:40.455Z,91629.40
2019-02-02T14:31:09.026Z,91637.16
2019-02-02T14:33:37.818Z,91636.86
2019-02-02T14:36:06.112Z,91631.64
2019-02-02T14:38:34.404Z,91639.24
2019-02-02T14:41:02.300Z,91642.77
2019-02-02T14:47:13.073Z,91645.45
2019-02-02T14:49:41.712Z,91645.06
2019-02-02T15:01:16.779Z,91621.78
2019-02-02T15:03:45.569Z,91616.11
2019-02-02T15:06:13.533Z,91622.38
2019-02-02T15:08:41.924Z,91628.69
2019-02-02T15:11:10.524Z,91636.64
2019-02-02T15:16:20.120Z,91650.53
2019-02-02T15:18:48.449Z,91651.77
2019-02-02T15:24:18.433Z,91663.42
2019-02-02T15:26:46.732Z,91666.28
2019-02-02T15:29:26.991Z,91669.84
2019-02-02T15:37:35.573Z,91692.31
2019-02-02T15:40:43.823Z,91693.65
2019-02-02T15:45:51.339Z,91696.21
2019-02-02T15:48:59.306Z,91693.90
2019-02-02T15:51:39.817Z,91698.03
2019-02-02T15:53:58.256Z,91699.30
2019-02-02T15:56:26.279Z,91694.52
2019-02-02T15:58:54.373Z,91694.82
2019-02-02T16:01:22.521Z,91695.22
2019-02-02T16:03:50.485Z,91700.83
2019-02-02T16:06:18.592Z,91712.40
2019-02-02T16:08:46.719Z,91722.08
2019-02-02T16:11:15.182Z,91721.41
2019-02-02T16:13:43.742Z,91727.03
2019-02-02T16:16:11.857Z,91730.97
2019-02-02T16:18:40.018Z,91734.84
2019-02-02T16:21:08.165Z,91734.14
2019-02-02T16:23:36.672Z,91739.27
2019-02-02T16:26:05.147Z,91741.80
2019-02-02T16:28:33.581Z,91745.04
2019-02-02T16:31:01.724Z,91750.47
2019-02-02T16:33:30.171Z,91757.58
2019-02-02T16:35:58.307Z,91766.44
2019-02-02T16:38:26.228Z,91774.52
2019-02-02T16:41:34.535Z,91775.85
2019-02-02T16:44:02.657Z,91770.39
2019-02-02T16:46:31.290Z,91772.17
2019-02-02T16:48:59.822Z,91764.13
2019-02-02T16:51:27.950Z,91771.23
2019-02-02T16:53:56.352Z,91775.52
2019-02-02T16:56:24.790Z,91784.04
2019-02-02T16:58:53.260Z,91789.47
2019-02-02T17:01:21.476Z,91787.39
2019-02-02T17:03:49.974Z,91787.84
2019-02-02T17:06:18.394Z,91794.53
2019-02-02T17:08:46.281Z,91789.44
2019-02-02T17:11:14.469Z,91798.41
2019-02-02T17:13:42.940Z,91804.35
2019-02-02T17:16:10.545Z,91802.69
2019-02-02T17:18:39.242Z,91797.52
2019-02-02T17:21:07.969Z,91797.52
2019-02-02T17:23:35.829Z,91804.39
2019-02-02T17:26:44.578Z,91808.75
2019-02-02T17:29:13.264Z,91816.89
2019-02-02T17:31:41.184Z,91814.47
2019-02-02T17:34:09.472Z,91814.58
2019-02-02T17:36:37.487Z,91818.52
2019-02-02T17:39:06.868Z,91822.39
2019-02-02T17:41:35.887Z,91826.73
2019-02-02T17:44:04.358Z,91829.03
2019-02-02T17:46:32.862Z,91829.92
2019-02-02T17:49:00.721Z,91833.20
2019-02-02T17:51:29.253Z,91848.48
2019-02-02T17:53:57.374Z,91847.77
2019-02-02T17:56:25.534Z,91852.94
2019-02-02T17:58:53.688Z,91851.40
2019-02-02T18:01:22.018Z,91866.09
2019-02-02T18:03:50.156Z,91864.83
2019-02-02T18:06:18.157Z,91877.41
2019-02-02T18:08:46.583Z,91887.52
2019-02-02T18:11:14.369Z,91896.44
2019-02-02T18:13:42.490Z,91909.16
2019-02-02T18:19:24.475Z,91917.02
2019-02-02T18:21:52.459Z,91919.20
2019-02-02T18:24:40.196Z,91930.52
2019-02-02T18:30:29.731Z,91940.83
2019-02-02T18:33:37.954Z,91950.56
2019-02-02T18:36:18.230Z,91956.64
2019-02-02T18:38:46.715Z,91950.86
2019-02-02T18:41:15.411Z,91959.36
2019-02-02T18:43:43.900Z,91961.99
2019-02-02T18:46:13.220Z,91962.43
2019-02-02T18:48:41.599Z,91956.62
2019-02-02T18:51:12.054Z,91962.50
2019-02-02T18:53:41.144Z,91965.47
2019-02-02T18:56:12.004Z,91959.14
2019-02-02T18:58:40.498Z,91961.23
2019-02-02T19:01:09.011Z,91965.50
2019-02-02T19:03:37.003Z,91966.41
2019-02-02T19:06:05.964Z,91970.17
2019-02-02T19:08:35.675Z,91977.80
2019-02-02T19:11:03.928Z,91987.88
2019-02-02T19:13:33.789Z,91980.73
2019-02-02T19:16:02.260Z,91987.81
2019-02-02T19:18:30.488Z,91994.66
2019-02-02T19:20:58.728Z,92003.13
2019-02-02T19:23:26.532Z,92009.92
2019-02-02T19:25:54.387Z,92016.66
2019-02-02T19:28:22.561Z,92011.60
2019-02-02T19:30:53.523Z,92008.38
2019-02-02T19:33:20.476Z,92017.22
2019-02-02T19:35:48.986Z,92031.22
2019-02-02T19:38:17.179Z,92027.05
2019-02-02T19:40:45.689Z,92027.05
2019-02-02T19:43:14.205Z,92025.78
2019-02-02T19:45:42.600Z,92031.22
2019-02-02T19:54:24.646Z,92050.27
2019-02-02T19:56:53.105Z,92053.17
2019-02-02T19:59:21.621Z,92054.41
2019-02-02T20:01:50.061Z,92069.95
2019-02-02T20:04:18.269Z,92078.36
2019-02-02T20:06:46.465Z,92083.09
2019-02-02T20:09:14.825Z,92098.16
2019-02-02T20:11:43.441Z,92108.22
2019-02-02T20:17:14.668Z,92107.86
2019-02-02T20:19:42.662Z,92111.30
2019-02-02T20:22:11.186Z,92114.24
2019-02-02T20:24:39.511Z,92117.51
2019-02-02T20:27:07.038Z,92114.59
2019-02-02T20:29:35.274Z,92119.59
2019-02-02T20:32:16.033Z,92124.20
2019-02-02T20:38:20.476Z,92121.73
2019-02-02T20:41:28.890Z,92123.53
2019-02-02T20:47:17.423Z,92123.17
2019-02-02T20:49:45.851Z,92121.53
2019-02-02T20:52:14.895Z,92119.00
2019-02-02T20:57:51.780Z,92109.30
2019-02-02T21:00:22.111Z,92111.36
2019-02-02T21:03:02.304Z,92114.27
2019-02-02T21:08:51.294Z,92118.50
2019-02-02T21:14:21.999Z,92129.49
2019-02-02T21:17:09.362Z,92121.20
2019-02-02T21:20:18.545Z,92127.94
2019-02-02T21:23:07.402Z,92130.05
2019-02-02T21:26:15.713Z,92136.36
2019-02-02T21:29:15.292Z,92139.39
2019-02-02T21:31:43.617Z,92143.04
2019-02-02T21:34:52.711Z,92143.18
2019-02-02T21:37:32.790Z,92134.72
2019-02-02T21:40:01.719Z,92135.98
2019-02-02T21:42:29.674Z,92133.75
2019-02-02T21:44:58.190Z,92134.34
2019-02-02T21:47:26.661Z,92133.54
2019-02-02T21:49:55.136Z,92130.22
2019-02-02T21:52:23.334Z,92126.42
2019-02-02T21:54:51.541Z,92137.41
2019-02-02T21:57:20.024Z,92133.24
2019-02-02T21:59:48.213Z,92131.53
2019-02-02T22:02:16.426Z,92139.94
2019-02-02T22:04:44.862Z,92144.11
2019-02-02T22:07:14.277Z,92142.91
2019-02-02T22:10:01.893Z,92146.64
2019-02-02T22:16:53.689Z,92155.55
2019-02-02T22:20:00.050Z,92159.42
2019-02-02T22:29:43.759Z,92187.23
2019-02-02T22:32:53.206Z,92190.34
2019-02-02T22:35:33.471Z,92192.48
2019-02-02T22:38:20.844Z,92198.38
2019-02-02T22:40:49.633Z,92201.84
2019-02-02T22:43:18.357Z,92212.36
2019-02-02T22:45:46.251Z,92211.06
2019-02-02T22:48:15.840Z,92208.54
2019-02-02T22:50:44.331Z,92213.62
2019-02-02T22:53:12.454Z,92212.41
2019-02-02T22:55:40.236Z,92214.88
2019-02-02T22:58:48.797Z,92214.88
2019-02-02T23:01:50.808Z,92216.12
2019-02-02T23:04:57.462Z,92210.41
2019-02-02T23:08:03.796Z,92223.12
2019-02-02T23:10:56.439Z,92228.23
2019-02-02T23:14:03.107Z,92232.10
2019-02-02T23:19:51.463Z,92240.43
2019-02-02T23:22:19.728Z,92246.36
2019-02-02T23:24:47.308Z,92246.75
2019-02-02T23:30:58.024Z,92250.84
2019-02-02T23:36:27.507Z,92246.75
2019-02-02T23:38:56.151Z,92244.61
2019-02-02T23:44:03.936Z,92247.88
2019-02-02T23:46:32.492Z,92247.88
2019-02-02T23:49:01.232Z,92254.63
2019-02-02T23:51:29.091Z,92250.77
2019-02-02T23:53:57.730Z,92241.84
2019-02-02T23:56:26.309Z,92243.98
2019-02-02T23:58:54.948Z,92245.25
